sensor_id;sensor_type;location;lat;lon;timestamp;pressure;altitude;pressure_sealevel;temperature;humidity
54038;BME280;39954;48.844;9.726;2023-07-31T00:00:39;96168.94;;;12.14;100.00
54038;BME280;39954;48.844;9.726;2023-07-31T00:01:41;96166.31;;;12.14;100.00
54038;BME280;39954;48.844;9.726;2023-07-31T00:02:46;96164.66;;;12.13;100.00
54038;BME280;39954;48.844;9.726;2023-07-31T00:03:49;96161.19;;;12.13;100.00
54038;BME280;39954;48.844;9.726;2023-07-31T00:04:54;96164.75;;;12.12;100.00
54038;BME280;39954;48.844;9.726;2023-07-31T00:05:57;96157.94;;;12.09;100.00
54038;BME280;39954;48.844;9.726;2023-07-31T00:07:02;96157.19;;;12.07;100.00
54038;BME280;39954;48.844;9.726;2023-07-31T00:08:06;96158.91;;;12.08;100.00
54038;BME280;39954;48.844;9.726;2023-07-31T00:09:13;96158.16;;;12.06;100.00
54038;BME280;39954;48.844;9.726;2023-07-31T00:10:16;96159.28;;;12.02;100.00
54038;BME280;39954;48.844;9.726;2023-07-31T00:11:20;96156.56;;;12.03;100.00
54038;BME280;39954;48.844;9.726;2023-07-31T00:12:23;96157.59;;;12.01;100.00
54038;BME280;39954;48.844;9.726;2023-07-31T00:13:25;96162.16;;;11.97;100.00
54038;BME280;39954;48.844;9.726;2023-07-31T00:14:30;96159.75;;;11.94;100.00
54038;BME280;39954;48.844;9.726;2023-07-31T00:15:32;96154.81;;;11.90;100.00
54038;BME280;39954;48.844;9.726;2023-07-31T00:16:37;96158.16;;;11.92;100.00
54038;BME280;39954;48.844;9.726;2023-07-31T00:17:39;96153.88;;;11.91;100.00
54038;BME280;39954;48.844;9.726;2023-07-31T00:18:44;96162.72;;;11.88;100.00
54038;BME280;39954;48.844;9.726;2023-07-31T00:19:46;96160.19;;;11.86;100.00
54038;BME280;39954;48.844;9.726;2023-07-31T00:20:52;96159.41;;;11.84;100.00
54038;BME280;39954;48.844;9.726;2023-07-31T00:21:54;96158.41;;;11.87;100.00
54038;BME280;39954;48.844;9.726;2023-07-31T00:22:59;96150.78;;;11.84;100.00
54038;BME280;39954;48.844;9.726;2023-07-31T00:24:01;96149.09;;;11.83;100.00
54038;BME280;39954;48.844;9.726;2023-07-31T00:25:09;96160.47;;;11.82;100.00
54038;BME280;39954;48.844;9.726;2023-07-31T00:26:11;96153.69;;;11.79;100.00
54038;BME280;39954;48.844;9.726;2023-07-31T00:27:15;96149.47;;;11.77;100.00
54038;BME280;39954;48.844;9.726;2023-07-31T00:28:18;96145.94;;;11.78;100.00
54038;BME280;39954;48.844;9.726;2023-07-31T00:29:22;96153.00;;;11.76;100.00
54038;BME280;39954;48.844;9.726;2023-07-31T00:30:25;96154.69;;;11.77;100.00
54038;BME280;39954;48.844;9.726;2023-07-31T00:31:29;96147.97;;;11.73;100.00
54038;BME280;39954;48.844;9.726;2023-07-31T00:32:32;96149.84;;;11.71;100.00
54038;BME280;39954;48.844;9.726;2023-07-31T00:33:38;96153.38;;;11.70;100.00
54038;BME280;39954;48.844;9.726;2023-07-31T00:34:40;96154.31;;;11.69;100.00
54038;BME280;39954;48.844;9.726;2023-07-31T00:35:45;96156.09;;;11.68;100.00
54038;BME280;39954;48.844;9.726;2023-07-31T00:36:50;96157.94;;;11.66;100.00
54038;BME280;39954;48.844;9.726;2023-07-31T00:37:57;96154.56;;;11.64;100.00
54038;BME280;39954;48.844;9.726;2023-07-31T00:38:59;96154.75;;;11.61;100.00
54038;BME280;39954;48.844;9.726;2023-07-31T00:40:08;96150.38;;;11.61;100.00
54038;BME280;39954;48.844;9.726;2023-07-31T00:41:11;96159.97;;;11.61;100.00
54038;BME280;39954;48.844;9.726;2023-07-31T00:42:15;96161.09;;;11.57;100.00
54038;BME280;39954;48.844;9.726;2023-07-31T00:43:18;96159.41;;;11.56;100.00
54038;BME280;39954;48.844;9.726;2023-07-31T00:44:22;96156.16;;;11.52;100.00
54038;BME280;39954;48.844;9.726;2023-07-31T00:45:25;96152.16;;;11.47;100.00
54038;BME280;39954;48.844;9.726;2023-07-31T00:46:30;96157.53;;;11.43;100.00
54038;BME280;39954;48.844;9.726;2023-07-31T00:47:33;96151.69;;;11.40;100.00
54038;BME280;39954;48.844;9.726;2023-07-31T00:48:38;96151.00;;;11.36;100.00
54038;BME280;39954;48.844;9.726;2023-07-31T00:49:41;96159.75;;;11.35;100.00
54038;BME280;39954;48.844;9.726;2023-07-31T00:50:46;96156.31;;;11.35;100.00
54038;BME280;39954;48.844;9.726;2023-07-31T00:51:48;96160.84;;;11.31;100.00
54038;BME280;39954;48.844;9.726;2023-07-31T00:52:53;96162.78;;;11.28;100.00
54038;BME280;39954;48.844;9.726;2023-07-31T00:53:56;96162.91;;;11.26;100.00
54038;BME280;39954;48.844;9.726;2023-07-31T00:55:01;96158.78;;;11.22;100.00
54038;BME280;39954;48.844;9.726;2023-07-31T00:56:06;96156.28;;;11.20;100.00
54038;BME280;39954;48.844;9.726;2023-07-31T00:57:11;96156.38;;;11.19;100.00
54038;BME280;39954;48.844;9.726;2023-07-31T00:58:13;96159.22;;;11.14;100.00
54038;BME280;39954;48.844;9.726;2023-07-31T00:59:18;96157.75;;;11.10;100.00
54038;BME280;39954;48.844;9.726;2023-07-31T01:00:21;96159.69;;;11.07;100.00
54038;BME280;39954;48.844;9.726;2023-07-31T01:01:26;96166.91;;;11.02;100.00
54038;BME280;39954;48.844;9.726;2023-07-31T01:02:28;96153.25;;;10.98;100.00
54038;BME280;39954;48.844;9.726;2023-07-31T01:03:33;96157.78;;;10.94;100.00
54038;BME280;39954;48.844;9.726;2023-07-31T01:04:35;96154.50;;;10.91;100.00
54038;BME280;39954;48.844;9.726;2023-07-31T01:05:49;96159.91;;;10.88;100.00
54038;BME280;39954;48.844;9.726;2023-07-31T01:06:59;96156.81;;;10.81;100.00
54038;BME280;39954;48.844;9.726;2023-07-31T01:08:15;96154.38;;;10.78;100.00
54038;BME280;39954;48.844;9.726;2023-07-31T01:09:29;96149.44;;;10.73;100.00
54038;BME280;39954;48.844;9.726;2023-07-31T01:10:46;96155.72;;;10.69;100.00
54038;BME280;39954;48.844;9.726;2023-07-31T01:11:56;96150.63;;;10.68;100.00
54038;BME280;39954;48.844;9.726;2023-07-31T01:13:03;96152.47;;;10.66;100.00
54038;BME280;39954;48.844;9.726;2023-07-31T01:14:05;96153.56;;;10.62;100.00
54038;BME280;39954;48.844;9.726;2023-07-31T01:15:10;96150.38;;;10.57;100.00
54038;BME280;39954;48.844;9.726;2023-07-31T01:16:12;96154.06;;;10.52;100.00
54038;BME280;39954;48.844;9.726;2023-07-31T01:17:17;96156.09;;;10.47;100.00
54038;BME280;39954;48.844;9.726;2023-07-31T01:18:20;96157.94;;;10.45;100.00
54038;BME280;39954;48.844;9.726;2023-07-31T01:19:26;96156.41;;;10.41;100.00
54038;BME280;39954;48.844;9.726;2023-07-31T01:20:29;96154.94;;;10.37;100.00
54038;BME280;39954;48.844;9.726;2023-07-31T01:22:04;96159.47;;;10.34;100.00
54038;BME280;39954;48.844;9.726;2023-07-31T01:23:31;96158.75;;;10.30;100.00
54038;BME280;39954;48.844;9.726;2023-07-31T01:24:48;96155.44;;;10.28;100.00
54038;BME280;39954;48.844;9.726;2023-07-31T01:26:08;96152.22;;;10.23;100.00
54038;BME280;39954;48.844;9.726;2023-07-31T01:27:21;96145.50;;;10.19;100.00
54038;BME280;39954;48.844;9.726;2023-07-31T01:28:28;96144.75;;;10.17;100.00
54038;BME280;39954;48.844;9.726;2023-07-31T01:29:39;96148.19;;;10.17;100.00
54038;BME280;39954;48.844;9.726;2023-07-31T01:30:47;96146.59;;;10.15;100.00
54038;BME280;39954;48.844;9.726;2023-07-31T01:31:53;96142.31;;;10.14;100.00
54038;BME280;39954;48.844;9.726;2023-07-31T01:32:57;96133.69;;;10.13;100.00
54038;BME280;39954;48.844;9.726;2023-07-31T01:34:04;96138.97;;;10.12;100.00
54038;BME280;39954;48.844;9.726;2023-07-31T01:35:08;96141.63;;;10.10;100.00
54038;BME280;39954;48.844;9.726;2023-07-31T01:36:13;96132.25;;;10.07;100.00
54038;BME280;39954;48.844;9.726;2023-07-31T01:37:15;96135.78;;;10.06;100.00
54038;BME280;39954;48.844;9.726;2023-07-31T01:38:21;96127.22;;;10.04;100.00
54038;BME280;39954;48.844;9.726;2023-07-31T01:39:24;96129.00;;;10.04;100.00
54038;BME280;39954;48.844;9.726;2023-07-31T01:40:28;96124.41;;;10.09;100.00
54038;BME280;39954;48.844;9.726;2023-07-31T01:41:33;96122.63;;;10.09;100.00
54038;BME280;39954;48.844;9.726;2023-07-31T01:42:38;96125.56;;;10.19;100.00
54038;BME280;39954;48.844;9.726;2023-07-31T01:43:40;96124.53;;;10.22;100.00
54038;BME280;39954;48.844;9.726;2023-07-31T01:44:45;96123.41;;;10.27;100.00
54038;BME280;39954;48.844;9.726;2023-07-31T01:45:47;96123.75;;;10.37;100.00
54038;BME280;39954;48.844;9.726;2023-07-31T01:47:00;96125.06;;;10.44;100.00
54038;BME280;39954;48.844;9.726;2023-07-31T01:48:02;96117.97;;;10.48;100.00
54038;BME280;39954;48.844;9.726;2023-07-31T01:49:07;96116.69;;;10.55;100.00
54038;BME280;39954;48.844;9.726;2023-07-31T01:50:09;96117.38;;;10.59;100.00
54038;BME280;39954;48.844;9.726;2023-07-31T01:51:14;96118.94;;;10.61;100.00
54038;BME280;39954;48.844;9.726;2023-07-31T01:52:16;96115.50;;;10.61;100.00
54038;BME280;39954;48.844;9.726;2023-07-31T01:53:21;96117.38;;;10.59;100.00
54038;BME280;39954;48.844;9.726;2023-07-31T01:54:23;96115.66;;;10.58;100.00
54038;BME280;39954;48.844;9.726;2023-07-31T01:55:28;96113.06;;;10.58;100.00
54038;BME280;39954;48.844;9.726;2023-07-31T01:56:33;96113.06;;;10.58;100.00
54038;BME280;39954;48.844;9.726;2023-07-31T01:57:38;96113.00;;;10.59;100.00
54038;BME280;39954;48.844;9.726;2023-07-31T01:58:41;96108.63;;;10.60;100.00
54038;BME280;39954;48.844;9.726;2023-07-31T01:59:45;96111.13;;;10.61;100.00
54038;BME280;39954;48.844;9.726;2023-07-31T02:00:48;96112.91;;;10.61;100.00
54038;BME280;39954;48.844;9.726;2023-07-31T02:01:52;96112.81;;;10.62;100.00
54038;BME280;39954;48.844;9.726;2023-07-31T02:02:55;96104.03;;;10.65;100.00
54038;BME280;39954;48.844;9.726;2023-07-31T02:04:00;96114.41;;;10.65;100.00
54038;BME280;39954;48.844;9.726;2023-07-31T02:05:03;96103.25;;;10.63;100.00
54038;BME280;39954;48.844;9.726;2023-07-31T02:06:08;96105.63;;;10.67;100.00
54038;BME280;39954;48.844;9.726;2023-07-31T02:07:10;96108.22;;;10.67;100.00
54038;BME280;39954;48.844;9.726;2023-07-31T02:08:16;96109.03;;;10.68;100.00
54038;BME280;39954;48.844;9.726;2023-07-31T02:09:18;96105.50;;;10.69;100.00
54038;BME280;39954;48.844;9.726;2023-07-31T02:10:23;96107.19;;;10.70;100.00
54038;BME280;39954;48.844;9.726;2023-07-31T02:11:25;96107.94;;;10.72;100.00
54038;BME280;39954;48.844;9.726;2023-07-31T02:12:32;96099.06;;;10.76;100.00
54038;BME280;39954;48.844;9.726;2023-07-31T02:13:35;96099.06;;;10.76;100.00
54038;BME280;39954;48.844;9.726;2023-07-31T02:14:40;96100.88;;;10.74;100.00
54038;BME280;39954;48.844;9.726;2023-07-31T02:15:42;96103.31;;;10.77;100.00
54038;BME280;39954;48.844;9.726;2023-07-31T02:16:47;96107.72;;;10.91;100.00
54038;BME280;39954;48.844;9.726;2023-07-31T02:17:50;96103.94;;;10.96;100.00
54038;BME280;39954;48.844;9.726;2023-07-31T02:18:55;96097.72;;;10.99;100.00
54038;BME280;39954;48.844;9.726;2023-07-31T02:19:58;96094.28;;;10.98;100.00
54038;BME280;39954;48.844;9.726;2023-07-31T02:21:03;96096.13;;;10.96;100.00
54038;BME280;39954;48.844;9.726;2023-07-31T02:22:05;96096.06;;;10.98;100.00
54038;BME280;39954;48.844;9.726;2023-07-31T02:23:10;96091.75;;;10.97;100.00
54038;BME280;39954;48.844;9.726;2023-07-31T02:24:12;96094.28;;;10.98;100.00
54038;BME280;39954;48.844;9.726;2023-07-31T02:25:17;96087.19;;;11.01;100.00
54038;BME280;39954;48.844;9.726;2023-07-31T02:26:19;96076.81;;;11.01;100.00
54038;BME280;39954;48.844;9.726;2023-07-31T02:27:24;96085.47;;;11.01;100.00
54038;BME280;39954;48.844;9.726;2023-07-31T02:28:32;96091.97;;;11.08;100.00
54038;BME280;39954;48.844;9.726;2023-07-31T02:29:37;96076.09;;;11.13;100.00
54038;BME280;39954;48.844;9.726;2023-07-31T02:30:39;96081.13;;;11.16;100.00
54038;BME280;39954;48.844;9.726;2023-07-31T02:31:41;96072.13;;;11.22;100.00
54038;BME280;39954;48.844;9.726;2023-07-31T02:32:46;96073.69;;;11.24;100.00
54038;BME280;39954;48.844;9.726;2023-07-31T02:33:48;96076.13;;;11.27;100.00
54038;BME280;39954;48.844;9.726;2023-07-31T02:34:53;96077.44;;;11.34;100.00
54038;BME280;39954;48.844;9.726;2023-07-31T02:35:55;96074.16;;;11.31;100.00
54038;BME280;39954;48.844;9.726;2023-07-31T02:37:00;96073.31;;;11.30;100.00
54038;BME280;39954;48.844;9.726;2023-07-31T02:38:02;96075.19;;;11.28;100.00
54038;BME280;39954;48.844;9.726;2023-07-31T02:39:04;96082.44;;;11.23;100.00
54038;BME280;39954;48.844;9.726;2023-07-31T02:40:10;96079.38;;;11.31;100.00
54038;BME280;39954;48.844;9.726;2023-07-31T02:41:12;96081.88;;;11.32;100.00
54038;BME280;39954;48.844;9.726;2023-07-31T02:42:17;96083.91;;;11.27;100.00
54038;BME280;39954;48.844;9.726;2023-07-31T02:43:19;96078.72;;;11.27;100.00
54038;BME280;39954;48.844;9.726;2023-07-31T02:44:27;96083.28;;;11.24;100.00
54038;BME280;39954;48.844;9.726;2023-07-31T02:45:29;96079.91;;;11.22;100.00
54038;BME280;39954;48.844;9.726;2023-07-31T02:46:34;96080.28;;;11.15;100.00
54038;BME280;39954;48.844;9.726;2023-07-31T02:47:36;96083.97;;;11.11;100.00
54038;BME280;39954;48.844;9.726;2023-07-31T02:48:41;96078.50;;;11.02;100.00
54038;BME280;39954;48.844;9.726;2023-07-31T02:49:43;96084.06;;;10.95;100.00
54038;BME280;39954;48.844;9.726;2023-07-31T02:50:47;96087.75;;;10.91;100.00
54038;BME280;39954;48.844;9.726;2023-07-31T02:51:52;96084.25;;;10.92;100.00
54038;BME280;39954;48.844;9.726;2023-07-31T02:52:54;96081.06;;;10.87;100.00
54038;BME280;39954;48.844;9.726;2023-07-31T02:53:59;96076.06;;;10.84;100.00
54038;BME280;39954;48.844;9.726;2023-07-31T02:55:01;96078.06;;;10.79;100.00
54038;BME280;39954;48.844;9.726;2023-07-31T02:56:06;96076.56;;;10.75;100.00
54038;BME280;39954;48.844;9.726;2023-07-31T02:57:08;96074.06;;;10.73;100.00
54038;BME280;39954;48.844;9.726;2023-07-31T02:58:13;96073.97;;;10.75;100.00
54038;BME280;39954;48.844;9.726;2023-07-31T02:59:15;96076.75;;;10.72;100.00
54038;BME280;39954;48.844;9.726;2023-07-31T03:00:22;96077.56;;;10.72;100.00
54038;BME280;39954;48.844;9.726;2023-07-31T03:01:24;96072.38;;;10.72;100.00
54038;BME280;39954;48.844;9.726;2023-07-31T03:02:29;96073.41;;;10.70;100.00
54038;BME280;39954;48.844;9.726;2023-07-31T03:03:32;96064.84;;;10.68;100.00
54038;BME280;39954;48.844;9.726;2023-07-31T03:04:37;96067.34;;;10.69;100.00
54038;BME280;39954;48.844;9.726;2023-07-31T03:05:39;96067.53;;;10.66;100.00
54038;BME280;39954;48.844;9.726;2023-07-31T03:06:41;96059.13;;;10.77;100.00
54038;BME280;39954;48.844;9.726;2023-07-31T03:07:46;96065.97;;;10.78;100.00
54038;BME280;39954;48.844;9.726;2023-07-31T03:08:51;96060.84;;;10.92;100.00
54038;BME280;39954;48.844;9.726;2023-07-31T03:09:53;96055.66;;;10.92;100.00
54038;BME280;39954;48.844;9.726;2023-07-31T03:10:57;96057.38;;;10.92;100.00
54038;BME280;39954;48.844;9.726;2023-07-31T03:12:00;96049.50;;;10.93;100.00
54038;BME280;39954;48.844;9.726;2023-07-31T03:13:02;96055.53;;;10.94;100.00
54038;BME280;39954;48.844;9.726;2023-07-31T03:14:07;96051.34;;;10.91;100.00
54038;BME280;39954;48.844;9.726;2023-07-31T03:15:10;96052.19;;;10.92;100.00
54038;BME280;39954;48.844;9.726;2023-07-31T03:16:17;96051.47;;;10.90;100.00
54038;BME280;39954;48.844;9.726;2023-07-31T03:17:20;96048.50;;;10.96;100.00
54038;BME280;39954;48.844;9.726;2023-07-31T03:18:24;96046.66;;;10.98;100.00
54038;BME280;39954;48.844;9.726;2023-07-31T03:19:26;96049.97;;;11.00;100.00
54038;BME280;39954;48.844;9.726;2023-07-31T03:20:31;96054.53;;;10.96;100.00
54038;BME280;39954;48.844;9.726;2023-07-31T03:21:33;96054.16;;;11.03;100.00
54038;BME280;39954;48.844;9.726;2023-07-31T03:22:38;96054.34;;;11.00;100.00
54038;BME280;39954;48.844;9.726;2023-07-31T03:23:41;96057.88;;;10.98;100.00
54038;BME280;39954;48.844;9.726;2023-07-31T03:24:45;96051.47;;;11.04;100.00
54038;BME280;39954;48.844;9.726;2023-07-31T03:25:57;96053.63;;;11.12;100.00
54038;BME280;39954;48.844;9.726;2023-07-31T03:27:02;96046.75;;;11.11;100.00
54038;BME280;39954;48.844;9.726;2023-07-31T03:28:05;96045.25;;;11.07;100.00
54038;BME280;39954;48.844;9.726;2023-07-31T03:29:10;96059.28;;;11.04;100.00
54038;BME280;39954;48.844;9.726;2023-07-31T03:30:12;96056.88;;;11.01;100.00
54038;BME280;39954;48.844;9.726;2023-07-31T03:31:19;96053.78;;;10.94;100.00
54038;BME280;39954;48.844;9.726;2023-07-31T03:32:22;96059.34;;;10.88;100.00
54038;BME280;39954;48.844;9.726;2023-07-31T03:33:26;96049.13;;;10.85;100.00
54038;BME280;39954;48.844;9.726;2023-07-31T03:34:29;96049.50;;;10.93;100.00
54038;BME280;39954;48.844;9.726;2023-07-31T03:35:33;96052.88;;;10.95;100.00
54038;BME280;39954;48.844;9.726;2023-07-31T03:36:36;96057.56;;;10.89;100.00
54038;BME280;39954;48.844;9.726;2023-07-31T03:37:41;96053.66;;;10.82;100.00
54038;BME280;39954;48.844;9.726;2023-07-31T03:38:43;96058.19;;;10.78;100.00
54038;BME280;39954;48.844;9.726;2023-07-31T03:39:48;96064.31;;;10.77;100.00
54038;BME280;39954;48.844;9.726;2023-07-31T03:40:50;96057.63;;;10.73;100.00
54038;BME280;39954;48.844;9.726;2023-07-31T03:41:55;96062.25;;;10.68;100.00
54038;BME280;39954;48.844;9.726;2023-07-31T03:42:57;96067.72;;;10.63;100.00
54038;BME280;39954;48.844;9.726;2023-07-31T03:44:03;96060.84;;;10.62;100.00
54038;BME280;39954;48.844;9.726;2023-07-31T03:45:07;96060.03;;;10.62;100.00
54038;BME280;39954;48.844;9.726;2023-07-31T03:46:12;96067.06;;;10.60;100.00
54038;BME280;39954;48.844;9.726;2023-07-31T03:47:16;96065.28;;;10.60;100.00
54038;BME280;39954;48.844;9.726;2023-07-31T03:48:21;96067.72;;;10.63;100.00
54038;BME280;39954;48.844;9.726;2023-07-31T03:49:24;96065.94;;;10.64;100.00
54038;BME280;39954;48.844;9.726;2023-07-31T03:50:28;96066.69;;;10.66;100.00
54038;BME280;39954;48.844;9.726;2023-07-31T03:51:31;96066.44;;;10.70;100.00
54038;BME280;39954;48.844;9.726;2023-07-31T03:52:35;96067.34;;;10.69;100.00
54038;BME280;39954;48.844;9.726;2023-07-31T03:53:38;96073.41;;;10.70;100.00
54038;BME280;39954;48.844;9.726;2023-07-31T03:54:42;96063.50;;;10.77;100.00
54038;BME280;39954;48.844;9.726;2023-07-31T03:55:46;96063.97;;;10.83;100.00
54038;BME280;39954;48.844;9.726;2023-07-31T03:56:51;96062.75;;;10.89;100.00
54038;BME280;39954;48.844;9.726;2023-07-31T03:57:53;96066.69;;;10.96;100.00
54038;BME280;39954;48.844;9.726;2023-07-31T03:58:57;96070.97;;;10.97;100.00
54038;BME280;39954;48.844;9.726;2023-07-31T04:00:00;96071.84;;;11.12;100.00
54038;BME280;39954;48.844;9.726;2023-07-31T04:01:04;96074.97;;;11.17;100.00
54038;BME280;39954;48.844;9.726;2023-07-31T04:02:07;96074.06;;;11.18;100.00
54038;BME280;39954;48.844;9.726;2023-07-31T04:03:14;96068.88;;;11.18;100.00
54038;BME280;39954;48.844;9.726;2023-07-31T04:04:16;96073.97;;;11.19;100.00
54038;BME280;39954;48.844;9.726;2023-07-31T04:05:21;96073.06;;;11.20;100.00
54038;BME280;39954;48.844;9.726;2023-07-31T04:06:23;96070.34;;;11.22;100.00
54038;BME280;39954;48.844;9.726;2023-07-31T04:07:28;96069.50;;;11.22;100.00
54038;BME280;39954;48.844;9.726;2023-07-31T04:08:30;96071.19;;;11.23;100.00
54038;BME280;39954;48.844;9.726;2023-07-31T04:09:35;96070.25;;;11.24;100.00
54038;BME280;39954;48.844;9.726;2023-07-31T04:10:37;96064.13;;;11.25;100.00
54038;BME280;39954;48.844;9.726;2023-07-31T04:11:42;96060.50;;;11.27;100.00
54038;BME280;39954;48.844;9.726;2023-07-31T04:12:44;96060.50;;;11.27;100.00
54038;BME280;39954;48.844;9.726;2023-07-31T04:13:49;96057.91;;;11.27;100.00
54038;BME280;39954;48.844;9.726;2023-07-31T04:14:51;96057.16;;;11.25;100.00
54038;BME280;39954;48.844;9.726;2023-07-31T04:15:56;96054.56;;;11.25;100.00
54038;BME280;39954;48.844;9.726;2023-07-31T04:16:58;96063.28;;;11.24;100.00
54038;BME280;39954;48.844;9.726;2023-07-31T04:18:04;96067.66;;;11.24;100.00
54038;BME280;39954;48.844;9.726;2023-07-31T04:19:09;96062.53;;;11.22;100.00
54038;BME280;39954;48.844;9.726;2023-07-31T04:20:18;96060.06;;;11.20;100.00
54038;BME280;39954;48.844;9.726;2023-07-31T04:21:20;96057.53;;;11.19;100.00
54038;BME280;39954;48.844;9.726;2023-07-31T04:22:25;96062.84;;;11.17;100.00
54038;BME280;39954;48.844;9.726;2023-07-31T04:23:28;96065.44;;;11.17;100.00
54038;BME280;39954;48.844;9.726;2023-07-31T04:24:33;96067.19;;;11.17;100.00
54038;BME280;39954;48.844;9.726;2023-07-31T04:25:35;96063.66;;;11.18;100.00
54038;BME280;39954;48.844;9.726;2023-07-31T04:26:41;96067.75;;;11.22;100.00
54038;BME280;39954;48.844;9.726;2023-07-31T04:27:43;96070.34;;;11.22;100.00
54038;BME280;39954;48.844;9.726;2023-07-31T04:28:48;96072.75;;;11.25;100.00
54038;BME280;39954;48.844;9.726;2023-07-31T04:29:51;96078.72;;;11.27;100.00
54038;BME280;39954;48.844;9.726;2023-07-31T04:30:55;96076.69;;;11.32;100.00
54038;BME280;39954;48.844;9.726;2023-07-31T04:31:57;96070.47;;;11.35;100.00
54038;BME280;39954;48.844;9.726;2023-07-31T04:33:02;96068.50;;;11.38;100.00
54038;BME280;39954;48.844;9.726;2023-07-31T04:34:05;96067.47;;;11.41;100.00
54038;BME280;39954;48.844;9.726;2023-07-31T04:35:12;96062.16;;;11.42;100.00
54038;BME280;39954;48.844;9.726;2023-07-31T04:36:14;96063.03;;;11.43;100.00
54038;BME280;39954;48.844;9.726;2023-07-31T04:37:19;96055.03;;;11.46;100.00
54038;BME280;39954;48.844;9.726;2023-07-31T04:38:22;96054.94;;;11.48;100.00
54038;BME280;39954;48.844;9.726;2023-07-31T04:39:27;96050.56;;;11.48;100.00
54038;BME280;39954;48.844;9.726;2023-07-31T04:40:29;96055.69;;;11.50;100.00
54038;BME280;39954;48.844;9.726;2023-07-31T04:41:34;96040.06;;;11.50;100.00
54038;BME280;39954;48.844;9.726;2023-07-31T04:42:36;96047.50;;;11.56;100.00
54038;BME280;39954;48.844;9.726;2023-07-31T04:43:41;96043.97;;;11.57;100.00
54038;BME280;39954;48.844;9.726;2023-07-31T04:44:43;96038.19;;;11.66;100.00
54038;BME280;39954;48.844;9.726;2023-07-31T04:45:48;96043.97;;;11.71;100.00
54038;BME280;39954;48.844;9.726;2023-07-31T04:46:51;96050.75;;;11.74;100.00
54038;BME280;39954;48.844;9.726;2023-07-31T04:47:57;96044.69;;;11.73;100.00
54038;BME280;39954;48.844;9.726;2023-07-31T04:49:00;96041.81;;;11.78;100.00
54038;BME280;39954;48.844;9.726;2023-07-31T04:50:06;96045.16;;;11.80;100.00
54038;BME280;39954;48.844;9.726;2023-07-31T04:51:11;96041.53;;;11.82;100.00
54038;BME280;39954;48.844;9.726;2023-07-31T04:52:16;96039.63;;;11.84;100.00
54038;BME280;39954;48.844;9.726;2023-07-31T04:53:19;96033.25;;;11.90;100.00
54038;BME280;39954;48.844;9.726;2023-07-31T04:54:23;96041.59;;;11.95;100.00
54038;BME280;39954;48.844;9.726;2023-07-31T04:55:28;96040.31;;;12.02;100.00
54038;BME280;39954;48.844;9.726;2023-07-31T04:56:33;96037.38;;;12.07;100.00
54038;BME280;39954;48.844;9.726;2023-07-31T04:57:35;96045.66;;;12.14;100.00
54038;BME280;39954;48.844;9.726;2023-07-31T04:58:40;96040.13;;;12.18;100.00
54038;BME280;39954;48.844;9.726;2023-07-31T04:59:42;96046.66;;;12.25;100.00
54038;BME280;39954;48.844;9.726;2023-07-31T05:00:49;96042.72;;;12.32;100.00
54038;BME280;39954;48.844;9.726;2023-07-31T05:01:51;96048.38;;;12.39;100.00
54038;BME280;39954;48.844;9.726;2023-07-31T05:02:56;96045.47;;;12.44;100.00
54038;BME280;39954;48.844;9.726;2023-07-31T05:03:58;96043.38;;;12.49;100.00
54038;BME280;39954;48.844;9.726;2023-07-31T05:05:04;96044.03;;;12.52;100.00
54038;BME280;39954;48.844;9.726;2023-07-31T05:06:06;96036.09;;;12.54;100.00
54038;BME280;39954;48.844;9.726;2023-07-31T05:07:13;96041.31;;;12.54;100.00
54038;BME280;39954;48.844;9.726;2023-07-31T05:08:16;96042.88;;;12.57;100.00
54038;BME280;39954;48.844;9.726;2023-07-31T05:09:21;96034.03;;;12.59;100.00
54038;BME280;39954;48.844;9.726;2023-07-31T05:10:23;96034.56;;;12.64;100.00
54038;BME280;39954;48.844;9.726;2023-07-31T05:11:28;96035.19;;;12.68;100.00
54038;BME280;39954;48.844;9.726;2023-07-31T05:12:30;96033.41;;;12.68;100.00
54038;BME280;39954;48.844;9.726;2023-07-31T05:13:33;96033.53;;;12.67;100.00
54038;BME280;39954;48.844;9.726;2023-07-31T05:14:38;96031.34;;;12.73;100.00
54038;BME280;39954;48.844;9.726;2023-07-31T05:15:41;96032.41;;;12.84;100.00
54038;BME280;39954;48.844;9.726;2023-07-31T05:16:45;96029.91;;;12.82;100.00
54038;BME280;39954;48.844;9.726;2023-07-31T05:17:48;96025.00;;;12.77;100.00
54038;BME280;39954;48.844;9.726;2023-07-31T05:18:53;96037.84;;;12.81;100.00
54038;BME280;39954;48.844;9.726;2023-07-31T05:19:55;96037.84;;;12.81;100.00
54038;BME280;39954;48.844;9.726;2023-07-31T05:21:00;96037.09;;;12.79;100.00
54038;BME280;39954;48.844;9.726;2023-07-31T05:22:02;96044.91;;;12.79;100.00
54038;BME280;39954;48.844;9.726;2023-07-31T05:23:09;96030.75;;;12.83;100.00
54038;BME280;39954;48.844;9.726;2023-07-31T05:24:12;96029.06;;;12.82;100.00
54038;BME280;39954;48.844;9.726;2023-07-31T05:25:17;96040.78;;;12.89;100.00
54038;BME280;39954;48.844;9.726;2023-07-31T05:26:19;96033.28;;;12.97;100.00
54038;BME280;39954;48.844;9.726;2023-07-31T05:27:24;96038.28;;;13.00;100.00
54038;BME280;39954;48.844;9.726;2023-07-31T05:28:26;96038.06;;;13.03;100.00
54038;BME280;39954;48.844;9.726;2023-07-31T05:29:31;96036.22;;;13.05;100.00
54038;BME280;39954;48.844;9.726;2023-07-31T05:30:34;96031.19;;;13.15;100.00
54038;BME280;39954;48.844;9.726;2023-07-31T05:31:38;96036.19;;;13.18;100.00
54038;BME280;39954;48.844;9.726;2023-07-31T05:32:41;96041.41;;;13.18;100.00
54038;BME280;39954;48.844;9.726;2023-07-31T05:33:46;96037.03;;;13.18;100.00
54038;BME280;39954;48.844;9.726;2023-07-31T05:34:50;96038.72;;;13.19;100.00
54038;BME280;39954;48.844;9.726;2023-07-31T05:35:55;96039.63;;;13.18;100.00
54038;BME280;39954;48.844;9.726;2023-07-31T05:36:57;96042.28;;;13.31;100.00